KBRG/BRG METAR and TAF weather

Enter ICAO airport designator
Station Type Date Time Source
KBRG METAR 2021/03/01 10:15 UTC NOAA

KBRG 011015Z AUTO 31007KT 10SM CLR M04/M20 A3025 RMK AO2 T10431200


Station Type Date Time Source
KBRG Decoded METAR 2021/03/01 10:15 UTC NOAA

Station name not available
Mar 01, 2021 - 05:15 AM EST / 2021.03.01 1015 UTC
Wind: from the NW (310 degrees) at 8 MPH (7 KT):0
Visibility: 10 mile(s):0
Sky conditions: clear
Temperature: 24.3 F (-4.3 C)
Windchill: 15 F (-9 C):1
Dew Point: -4.0 F (-20.0 C)
Relative Humidity: 28%
Pressure (altimeter): 30.25 in. Hg (1024 hPa)
ob: KBRG 011015Z AUTO 31007KT 10SM CLR M04/M20 A3025 RMK AO2 T10431200
cycle: 10

Station Type Date Time Source
KBRG TAF 2012/07/03 12:12 UTC NOAA

TAF SKBRG 031000Z 031212 VRB02KT 9999 FEW017 SCT080
TEMPO 0312/0317 11005KT VCTS - DZRAFEW015CB BKN070
TEMPO 0318/0323 TSRA FEW017CB BKN070
TEMPO 0400/0402 VCTS FEW020CB
TEMPO 0402/0406 -DZ SCT015CB
TEMPO 0408/0412 00000KT 5000 BCFG FEW005 TX23/0319Z TN10/0411Z

Example: see airport list